createdAt,value
2018-11-27T00:01:55.527Z,7.90
2018-11-27T00:04:31.610Z,7.90
2018-11-27T00:07:04.511Z,7.80
2018-11-27T00:09:34.474Z,7.80
2018-11-27T00:12:04.286Z,7.70
2018-11-27T00:14:33.951Z,7.70
2018-11-27T00:17:04.081Z,7.70
2018-11-27T00:19:33.833Z,7.70
2018-11-27T00:22:04.097Z,7.80
2018-11-27T00:24:33.581Z,7.80
2018-11-27T00:27:04.788Z,7.80
2018-11-27T00:29:34.891Z,7.70
2018-11-27T00:32:06.635Z,7.70
2018-11-27T00:34:40.148Z,7.80
2018-11-27T00:37:09.978Z,7.80
2018-11-27T00:39:39.688Z,7.80
2018-11-27T00:42:10.212Z,7.80
2018-11-27T00:44:41.752Z,7.90
2018-11-27T00:47:25.903Z,7.80
2018-11-27T00:49:56.050Z,7.80
2018-11-27T00:52:25.858Z,7.80
2018-11-27T00:54:58.831Z,7.80
2018-11-27T00:57:28.728Z,7.80
2018-11-27T01:00:01.759Z,7.80
2018-11-27T01:02:31.957Z,7.80
2018-11-27T01:05:05.151Z,7.80
2018-11-27T01:07:35.382Z,7.70
2018-11-27T01:10:06.266Z,7.80
2018-11-27T01:12:35.733Z,7.70
2018-11-27T01:15:05.260Z,7.70
2018-11-27T01:17:34.928Z,7.70
2018-11-27T01:20:08.233Z,7.70
2018-11-27T01:22:41.097Z,7.70
2018-11-27T01:25:13.160Z,7.60
2018-11-27T01:27:43.491Z,7.50
2018-11-27T01:30:15.966Z,7.50
2018-11-27T01:32:45.667Z,7.50
2018-11-27T01:35:19.069Z,7.50
2018-11-27T01:37:52.171Z,7.50
2018-11-27T01:40:27.270Z,7.60
2018-11-27T01:42:58.918Z,7.60
2018-11-27T01:45:29.191Z,7.60
2018-11-27T01:48:00.074Z,7.60
2018-11-27T01:50:29.594Z,7.60
2018-11-27T01:53:01.934Z,7.60
2018-11-27T01:55:36.160Z,7.50
2018-11-27T01:58:06.400Z,7.50
2018-11-27T02:00:42.888Z,7.40
2018-11-27T02:03:15.836Z,7.40
2018-11-27T02:05:45.704Z,7.40
2018-11-27T02:08:18.509Z,7.40
2018-11-27T02:10:50.938Z,7.50
2018-11-27T02:13:27.737Z,7.50
2018-11-27T02:15:59.315Z,7.40
2018-11-27T02:18:38.950Z,7.30
2018-11-27T02:21:19.627Z,7.30
2018-11-27T02:23:52.076Z,7.20
2018-11-27T02:26:27.673Z,7.20
2018-11-27T02:28:57.604Z,7.10
2018-11-27T02:31:27.737Z,7.10
2018-11-27T02:33:58.463Z,7.10
2018-11-27T02:36:30.075Z,7.10
2018-11-27T02:39:07.488Z,7.10
2018-11-27T02:41:37.632Z,7.10
2018-11-27T02:44:08.005Z,7.10
2018-11-27T02:46:37.682Z,7.00
2018-11-27T02:49:09.510Z,7.00
2018-11-27T02:51:40.913Z,6.90
2018-11-27T02:54:10.881Z,6.90
2018-11-27T02:56:40.656Z,6.90
2018-11-27T02:59:10.368Z,6.90
2018-11-27T03:01:40.420Z,6.80
2018-11-27T03:04:10.431Z,6.80
2018-11-27T03:06:40.074Z,6.80
2018-11-27T03:09:11.688Z,6.80
2018-11-27T03:11:41.041Z,6.80
2018-11-27T03:14:10.885Z,6.90
2018-11-27T03:16:42.156Z,6.90
2018-11-27T03:19:11.674Z,6.90
2018-11-27T03:21:41.829Z,6.90
2018-11-27T03:24:11.368Z,6.90
2018-11-27T03:26:41.880Z,6.90
2018-11-27T03:29:11.816Z,6.90
2018-11-27T03:31:41.342Z,6.80
2018-11-27T03:34:10.923Z,6.80
2018-11-27T03:40:20.742Z,6.80
2018-11-27T03:42:50.837Z,6.80
2018-11-27T03:45:20.960Z,6.80
2018-11-27T03:47:50.655Z,6.60
2018-11-27T03:50:25.004Z,6.60
2018-11-27T03:52:54.414Z,6.60
2018-11-27T03:55:23.847Z,6.60
2018-11-27T03:57:54.001Z,6.70
2018-11-27T04:00:25.266Z,6.60
2018-11-27T04:03:09.397Z,6.70
2018-11-27T04:05:39.020Z,6.60
2018-11-27T04:08:09.540Z,6.70
2018-11-27T04:10:40.256Z,6.70
2018-11-27T04:13:11.309Z,6.70
2018-11-27T04:15:40.735Z,6.70
2018-11-27T04:18:10.282Z,6.80
2018-11-27T04:20:40.119Z,6.80
2018-11-27T04:23:09.711Z,6.80
2018-11-27T04:25:39.227Z,6.80
2018-11-27T04:28:08.838Z,6.80
2018-11-27T04:30:38.210Z,6.80
2018-11-27T04:33:07.957Z,6.80
2018-11-27T04:35:37.514Z,6.80
2018-11-27T04:38:08.692Z,6.80
2018-11-27T04:40:38.923Z,6.80
2018-11-27T04:43:08.218Z,6.80
2018-11-27T04:45:37.985Z,6.80
2018-11-27T04:48:08.103Z,6.90
2018-11-27T04:50:37.953Z,6.90
2018-11-27T04:53:07.902Z,6.90
2018-11-27T04:55:37.577Z,6.90
2018-11-27T04:58:07.196Z,6.80
2018-11-27T05:00:36.491Z,6.70
2018-11-27T05:03:06.944Z,6.70
2018-11-27T05:05:36.557Z,6.60
2018-11-27T05:08:06.302Z,6.70
2018-11-27T05:10:35.995Z,6.60
2018-11-27T05:13:05.815Z,6.60
2018-11-27T05:15:35.076Z,6.60
2018-11-27T05:18:04.590Z,6.50
2018-11-27T05:20:33.864Z,6.50
2018-11-27T05:23:03.957Z,6.50
2018-11-27T05:25:33.342Z,6.50
2018-11-27T05:28:03.722Z,6.50
2018-11-27T05:30:33.219Z,6.50
2018-11-27T05:33:03.607Z,6.50
2018-11-27T05:35:33.272Z,6.50
2018-11-27T05:38:03.864Z,6.50
2018-11-27T05:40:33.124Z,6.50
2018-11-27T05:43:07.236Z,6.40
2018-11-27T05:45:36.637Z,6.40
2018-11-27T05:48:06.886Z,6.40
2018-11-27T05:50:36.153Z,6.40
2018-11-27T05:53:06.600Z,6.40
2018-11-27T05:55:36.863Z,6.40
2018-11-27T05:58:08.762Z,6.40
2018-11-27T06:00:38.296Z,6.30
2018-11-27T06:03:09.946Z,6.30
2018-11-27T06:05:41.397Z,6.40
2018-11-27T06:08:11.459Z,6.40
2018-11-27T06:10:40.774Z,6.40
2018-11-27T06:13:15.570Z,6.40
2018-11-27T06:15:44.892Z,6.40
2018-11-27T06:18:14.367Z,6.40
2018-11-27T06:20:43.656Z,6.40
2018-11-27T06:23:13.307Z,6.40
2018-11-27T06:25:43.635Z,6.40
2018-11-27T06:28:13.292Z,6.40
2018-11-27T06:30:44.801Z,6.40
2018-11-27T06:33:14.761Z,6.20
2018-11-27T06:35:45.496Z,6.20
2018-11-27T06:38:15.288Z,6.20
2018-11-27T06:40:44.727Z,6.30
2018-11-27T06:43:14.870Z,6.30
2018-11-27T06:45:44.773Z,6.30
2018-11-27T06:48:14.689Z,6.30
2018-11-27T06:50:44.147Z,6.40
2018-11-27T06:53:13.503Z,6.40
2018-11-27T06:55:42.905Z,6.40
2018-11-27T06:58:12.849Z,6.40
2018-11-27T07:00:42.491Z,6.30
2018-11-27T07:03:14.897Z,6.30
2018-11-27T07:05:44.272Z,6.30
2018-11-27T07:08:13.684Z,6.10
2018-11-27T07:10:45.753Z,6.10
2018-11-27T07:13:24.085Z,6.10
2018-11-27T07:15:54.481Z,6.20
2018-11-27T07:18:23.922Z,6.10
2018-11-27T07:20:53.472Z,6.10
2018-11-27T07:23:23.703Z,6.10
2018-11-27T07:25:53.026Z,6.10
2018-11-27T07:28:22.524Z,6.10
2018-11-27T07:30:51.841Z,6.10
2018-11-27T07:33:21.327Z,6.10
2018-11-27T07:35:51.705Z,6.10
2018-11-27T07:38:21.857Z,6.10
2018-11-27T07:40:51.776Z,6.00
2018-11-27T07:43:22.514Z,6.00
2018-11-27T07:46:56.141Z,6.10
2018-11-27T07:49:26.947Z,6.10
2018-11-27T07:51:56.304Z,6.10
2018-11-27T07:54:25.843Z,6.10
2018-11-27T07:56:55.181Z,6.20
2018-11-27T07:59:24.615Z,6.30
2018-11-27T08:01:54.109Z,6.20
2018-11-27T08:04:24.184Z,6.20
2018-11-27T08:06:53.777Z,6.20
2018-11-27T08:09:27.099Z,6.20
2018-11-27T08:11:56.247Z,6.20
2018-11-27T08:14:26.473Z,6.10
2018-11-27T08:16:56.033Z,6.10
2018-11-27T08:19:25.492Z,6.10
2018-11-27T08:21:56.191Z,6.00
2018-11-27T08:24:34.810Z,6.10
2018-11-27T08:27:04.294Z,6.30
2018-11-27T08:29:34.568Z,6.20
2018-11-27T08:32:04.944Z,6.30
2018-11-27T08:34:35.150Z,6.40
2018-11-27T08:37:05.535Z,6.40
2018-11-27T08:39:35.433Z,6.30
2018-11-27T08:42:05.002Z,6.40
2018-11-27T08:44:34.441Z,6.40
2018-11-27T08:47:04.181Z,6.50
2018-11-27T08:49:33.820Z,6.70
2018-11-27T08:52:04.332Z,6.90
2018-11-27T08:54:33.919Z,6.90
2018-11-27T08:57:04.433Z,7.00
2018-11-27T08:59:36.770Z,7.00
2018-11-27T09:02:07.703Z,6.90
2018-11-27T09:04:39.016Z,7.00
2018-11-27T09:07:08.707Z,6.90
2018-11-27T09:09:39.534Z,6.90
2018-11-27T09:12:09.922Z,7.00
2018-11-27T09:14:40.567Z,6.90
2018-11-27T09:17:15.765Z,6.90
2018-11-27T09:19:49.818Z,7.00
2018-11-27T09:22:20.644Z,7.00
2018-11-27T09:24:51.559Z,7.00
2018-11-27T09:27:21.300Z,7.20
2018-11-27T09:29:51.749Z,7.20
2018-11-27T09:32:26.359Z,7.10
2018-11-27T09:34:57.171Z,7.00
2018-11-27T09:37:26.594Z,7.10
2018-11-27T09:39:56.440Z,7.10
2018-11-27T09:42:26.324Z,7.10
2018-11-27T09:44:55.732Z,7.20
2018-11-27T09:47:28.992Z,7.30
2018-11-27T09:49:58.556Z,7.40
2018-11-27T09:52:29.681Z,7.50
2018-11-27T09:54:59.298Z,7.50
2018-11-27T09:57:29.370Z,7.40
2018-11-27T09:59:58.864Z,7.20
2018-11-27T10:02:28.749Z,7.10
2018-11-27T10:04:58.092Z,7.10
2018-11-27T10:07:27.889Z,7.20
2018-11-27T10:09:57.719Z,7.40
2018-11-27T10:12:28.270Z,7.50
2018-11-27T10:14:58.327Z,7.50
2018-11-27T10:17:31.544Z,7.60
2018-11-27T10:20:04.812Z,7.90
2018-11-27T10:22:38.905Z,8.00
2018-11-27T10:25:21.174Z,8.00
2018-11-27T10:27:53.513Z,7.80
2018-11-27T10:30:30.319Z,7.70
2018-11-27T10:33:03.597Z,7.70
2018-11-27T10:35:37.843Z,7.50
2018-11-27T10:38:13.018Z,7.40
2018-11-27T10:40:42.865Z,7.60
2018-11-27T10:45:46.247Z,7.60
2018-11-27T10:46:08.981Z,7.60
2018-11-27T10:48:16.605Z,7.40
2018-11-27T10:50:47.109Z,7.50
2018-11-27T10:53:17.153Z,7.50
2018-11-27T10:55:47.212Z,7.50
2018-11-27T10:58:19.945Z,7.70
2018-11-27T11:00:54.873Z,7.70
2018-11-27T11:03:26.195Z,7.80
2018-11-27T11:06:00.348Z,7.80
2018-11-27T11:08:30.341Z,7.70
2018-11-27T11:11:02.811Z,7.60
2018-11-27T11:13:33.860Z,7.60
2018-11-27T11:16:07.283Z,7.50
2018-11-27T11:18:37.203Z,7.60
2018-11-27T11:21:08.291Z,7.70
2018-11-27T11:23:40.993Z,7.60
2018-11-27T11:26:10.497Z,7.70
2018-11-27T11:28:50.504Z,7.70
2018-11-27T11:31:20.844Z,7.90
2018-11-27T11:33:58.491Z,8.00
2018-11-27T11:36:39.341Z,8.10
2018-11-27T11:39:14.668Z,8.20
2018-11-27T11:41:47.604Z,8.20
2018-11-27T11:44:22.450Z,8.10
2018-11-27T11:46:52.039Z,8.00
2018-11-27T11:49:21.922Z,8.00
2018-11-27T11:51:54.196Z,8.00
2018-11-27T11:54:24.731Z,7.80
2018-11-27T11:56:55.400Z,7.80
2018-11-27T11:59:28.916Z,7.80
2018-11-27T12:01:56.987Z,7.70
2018-11-27T12:04:26.772Z,7.80
2018-11-27T12:06:56.445Z,7.80
2018-11-27T12:09:26.092Z,7.90
2018-11-27T12:12:01.045Z,7.90
2018-11-27T12:14:31.800Z,7.80
2018-11-27T12:17:02.557Z,7.80
2018-11-27T12:19:33.383Z,7.70
2018-11-27T12:22:02.996Z,7.60
2018-11-27T12:24:33.738Z,7.60
2018-11-27T12:27:09.421Z,7.60
2018-11-27T12:29:40.608Z,7.60
2018-11-27T12:32:12.211Z,7.50
2018-11-27T12:34:50.759Z,7.50
2018-11-27T12:37:22.281Z,7.50
2018-11-27T12:39:53.170Z,7.40
2018-11-27T12:42:23.163Z,7.40
2018-11-27T12:44:53.535Z,7.50
2018-11-27T12:47:24.468Z,7.40
2018-11-27T12:49:55.253Z,7.40
2018-11-27T12:52:25.252Z,7.40
2018-11-27T12:54:57.779Z,7.30
2018-11-27T12:57:27.220Z,7.20
2018-11-27T12:59:57.187Z,7.10
2018-11-27T13:02:28.269Z,7.10
2018-11-27T13:04:58.523Z,7.20
2018-11-27T13:07:27.896Z,7.30
2018-11-27T13:09:57.753Z,7.40
2018-11-27T13:13:31.198Z,7.40
2018-11-27T13:16:01.585Z,7.30
2018-11-27T13:18:39.433Z,7.20
2018-11-27T13:21:12.023Z,7.20
2018-11-27T13:23:41.655Z,7.30
2018-11-27T13:26:12.239Z,7.30
2018-11-27T13:29:13.897Z,7.40
2018-11-27T13:31:45.052Z,7.40
2018-11-27T13:34:16.286Z,7.20
2018-11-27T13:36:47.120Z,7.20
2018-11-27T13:39:27.303Z,7.20
2018-11-27T13:42:01.268Z,7.30
2018-11-27T13:44:31.268Z,7.20
2018-11-27T13:47:02.687Z,7.30
2018-11-27T13:49:32.771Z,7.40
2018-11-27T13:52:02.375Z,7.40
2018-11-27T13:54:31.734Z,7.30
2018-11-27T13:57:01.852Z,7.60
2018-11-27T13:59:32.004Z,7.80
2018-11-27T14:02:01.445Z,7.90
2018-11-27T14:04:34.657Z,8.50
2018-11-27T14:07:07.588Z,9.00
2018-11-27T14:09:38.179Z,9.30
2018-11-27T14:12:08.733Z,9.20
2018-11-27T14:14:39.438Z,9.00
2018-11-27T14:17:09.096Z,8.50
2018-11-27T14:19:38.717Z,8.20
2018-11-27T14:22:08.878Z,8.00
2018-11-27T14:24:40.429Z,7.90
2018-11-27T14:27:11.834Z,7.70
2018-11-27T14:29:43.241Z,7.40
2018-11-27T14:32:12.660Z,7.30
2018-11-27T14:34:42.464Z,7.30
2018-11-27T14:37:12.714Z,7.20
2018-11-27T14:39:42.798Z,7.20
2018-11-27T14:42:13.001Z,7.20
2018-11-27T14:44:42.666Z,7.20
2018-11-27T14:47:13.183Z,7.20
2018-11-27T14:49:42.932Z,7.20
2018-11-27T14:52:14.894Z,7.00
2018-11-27T14:54:44.778Z,6.90
2018-11-27T14:57:14.334Z,6.80
2018-11-27T14:59:44.025Z,6.70
2018-11-27T15:02:13.978Z,6.60
2018-11-27T15:04:43.516Z,6.50
2018-11-27T15:07:18.827Z,6.60
2018-11-27T15:09:52.432Z,6.60
2018-11-27T15:12:31.353Z,6.60
2018-11-27T15:15:10.775Z,6.60
2018-11-27T15:17:47.429Z,6.50
2018-11-27T15:20:20.313Z,6.50
2018-11-27T15:23:57.819Z,6.50
2018-11-27T15:26:29.031Z,6.40
2018-11-27T15:29:03.810Z,6.30
2018-11-27T15:31:37.672Z,6.40
2018-11-27T15:34:15.485Z,6.40
2018-11-27T15:36:49.400Z,6.40
2018-11-27T15:39:18.738Z,6.50
2018-11-27T15:41:48.811Z,6.60
2018-11-27T15:44:22.391Z,6.60
2018-11-27T15:46:53.372Z,6.70
2018-11-27T15:49:23.865Z,6.70
2018-11-27T15:51:53.208Z,6.70
2018-11-27T15:54:24.426Z,6.70
2018-11-27T15:57:06.698Z,6.70
2018-11-27T15:59:42.144Z,6.70
2018-11-27T16:02:12.333Z,6.70
2018-11-27T16:04:43.066Z,6.70
2018-11-27T16:07:13.409Z,6.70
2018-11-27T16:09:44.102Z,6.80
2018-11-27T16:12:15.455Z,6.80
2018-11-27T16:14:46.452Z,6.70
2018-11-27T16:17:15.919Z,6.70
2018-11-27T16:19:46.665Z,6.60
2018-11-27T16:22:20.816Z,6.50
2018-11-27T16:24:51.894Z,6.50
2018-11-27T16:27:23.464Z,6.30
2018-11-27T16:29:55.330Z,6.40
2018-11-27T16:32:26.860Z,6.40
2018-11-27T16:34:57.399Z,6.60
2018-11-27T16:37:27.228Z,6.60
2018-11-27T16:39:57.883Z,6.60
2018-11-27T16:42:30.571Z,6.60
2018-11-27T16:45:02.362Z,6.60
2018-11-27T16:47:33.005Z,6.60
2018-11-27T16:50:04.861Z,6.60
2018-11-27T16:52:36.220Z,6.60
2018-11-27T16:55:11.645Z,6.80
2018-11-27T16:57:42.027Z,6.90
2018-11-27T17:00:24.870Z,6.90
2018-11-27T17:03:10.526Z,6.90
2018-11-27T17:05:42.748Z,6.90
2018-11-27T17:08:12.748Z,6.90
2018-11-27T17:10:44.402Z,6.90
2018-11-27T17:13:15.060Z,6.90
2018-11-27T17:15:46.828Z,7.00
2018-11-27T17:18:29.665Z,6.90
2018-11-27T17:21:00.864Z,6.80
2018-11-27T17:23:34.044Z,6.80
2018-11-27T17:26:09.929Z,6.70
2018-11-27T17:28:43.844Z,6.50
2018-11-27T17:31:15.839Z,6.40
2018-11-27T17:33:51.748Z,6.50
2018-11-27T17:36:22.972Z,6.50
2018-11-27T17:38:54.540Z,6.50
2018-11-27T17:41:25.365Z,6.50
2018-11-27T17:43:57.411Z,6.50
2018-11-27T17:46:28.854Z,6.50
2018-11-27T17:49:07.024Z,6.50
2018-11-27T17:51:37.422Z,6.50
2018-11-27T17:54:15.844Z,6.50
2018-11-27T17:56:52.264Z,6.30
2018-11-27T17:59:22.868Z,6.10
2018-11-27T18:02:59.426Z,6.10
2018-11-27T18:05:28.930Z,6.10
2018-11-27T18:08:00.703Z,6.00
2018-11-27T18:10:48.017Z,5.90
2018-11-27T18:13:31.673Z,6.00
2018-11-27T18:16:03.814Z,6.00
2018-11-27T18:18:34.477Z,5.90
2018-11-27T18:21:06.420Z,5.90
2018-11-27T18:23:40.498Z,5.80
2018-11-27T18:26:17.076Z,5.70
2018-11-27T18:28:47.899Z,5.60
2018-11-27T18:31:17.556Z,5.60
2018-11-27T18:33:47.965Z,5.60
2018-11-27T18:36:18.142Z,5.50
2018-11-27T18:38:48.645Z,5.50
2018-11-27T18:41:19.020Z,5.50
2018-11-27T18:43:49.902Z,5.40
2018-11-27T18:46:22.967Z,5.40
2018-11-27T18:48:54.581Z,5.40
2018-11-27T18:51:24.370Z,5.40
2018-11-27T18:53:55.029Z,5.40
2018-11-27T18:56:25.326Z,5.40
2018-11-27T18:58:56.051Z,5.40
2018-11-27T19:01:27.674Z,5.40
2018-11-27T19:03:58.249Z,5.40
2018-11-27T19:06:30.042Z,5.40
2018-11-27T19:09:00.179Z,5.50
2018-11-27T19:11:30.297Z,5.40
2018-11-27T19:14:11.831Z,5.40
2018-11-27T19:16:43.063Z,5.40
2018-11-27T19:19:13.264Z,5.40
2018-11-27T19:21:53.548Z,5.30
2018-11-27T19:24:24.210Z,5.40
2018-11-27T19:26:54.876Z,5.30
2018-11-27T19:29:26.439Z,5.30
2018-11-27T19:31:56.028Z,5.20
2018-11-27T19:34:26.243Z,5.20
2018-11-27T19:36:56.357Z,5.20
2018-11-27T19:39:40.614Z,5.10
2018-11-27T19:42:15.454Z,5.10
2018-11-27T19:44:45.012Z,5.00
2018-11-27T19:47:15.705Z,5.00
2018-11-27T19:49:46.377Z,5.00
2018-11-27T19:52:16.109Z,5.00
2018-11-27T19:54:48.285Z,5.00
2018-11-27T19:57:20.327Z,5.00
2018-11-27T19:59:50.281Z,5.10
2018-11-27T20:02:20.296Z,5.00
2018-11-27T20:04:51.876Z,5.00
2018-11-27T20:07:24.067Z,4.90
2018-11-27T20:10:01.413Z,4.90
2018-11-27T20:12:31.226Z,4.90
2018-11-27T20:15:01.292Z,4.90
2018-11-27T20:17:39.849Z,4.90
2018-11-27T20:20:13.848Z,4.80
2018-11-27T20:22:44.237Z,4.80
2018-11-27T20:25:17.791Z,4.70
2018-11-27T20:27:49.882Z,4.80
2018-11-27T20:30:25.332Z,4.80
2018-11-27T20:32:57.855Z,4.70
2018-11-27T20:35:27.947Z,4.60
2018-11-27T20:38:01.262Z,4.70
2018-11-27T20:40:31.169Z,4.60
2018-11-27T20:43:02.478Z,4.60
2018-11-27T20:45:36.430Z,4.50
2018-11-27T20:48:20.410Z,4.60
2018-11-27T20:50:52.559Z,4.60
2018-11-27T20:53:24.441Z,4.50
2018-11-27T20:55:57.236Z,4.40
2018-11-27T20:58:31.644Z,4.40
2018-11-27T21:01:08.058Z,4.40
2018-11-27T21:03:38.942Z,4.40
2018-11-27T21:06:11.202Z,4.40
2018-11-27T21:08:41.039Z,4.40
2018-11-27T21:11:13.991Z,4.30
2018-11-27T21:13:44.405Z,4.30
2018-11-27T21:16:14.672Z,4.30
2018-11-27T21:18:44.599Z,4.30
2018-11-27T21:21:15.475Z,4.40
2018-11-27T21:23:45.618Z,4.40
2018-11-27T21:26:17.262Z,4.50
2018-11-27T21:28:49.464Z,4.40
2018-11-27T21:31:24.210Z,4.40
2018-11-27T21:33:53.253Z,4.30
2018-11-27T21:36:23.810Z,4.30
2018-11-27T21:38:53.467Z,4.30
2018-11-27T21:41:25.235Z,4.30
2018-11-27T21:43:57.587Z,4.30
2018-11-27T21:46:28.679Z,4.30
2018-11-27T21:48:58.983Z,4.20
2018-11-27T21:51:30.914Z,4.00
2018-11-27T21:54:05.861Z,4.00
2018-11-27T21:56:36.837Z,4.00
2018-11-27T21:59:07.324Z,4.00
2018-11-27T22:01:38.314Z,4.00
2018-11-27T22:04:09.527Z,4.00
2018-11-27T22:06:48.285Z,3.90
2018-11-27T22:09:18.799Z,3.90
2018-11-27T22:11:50.427Z,3.90
2018-11-27T22:14:20.826Z,3.90
2018-11-27T22:16:50.346Z,3.90
2018-11-27T22:19:21.359Z,3.90
2018-11-27T22:21:52.037Z,3.90
2018-11-27T22:24:27.802Z,3.90
2018-11-27T22:27:07.920Z,3.80
2018-11-27T22:29:38.987Z,3.80
2018-11-27T22:32:09.149Z,3.70
2018-11-27T22:34:38.667Z,3.60
2018-11-27T22:37:08.482Z,3.50
2018-11-27T22:39:37.898Z,3.40
2018-11-27T22:42:09.154Z,3.40
2018-11-27T22:44:40.390Z,3.30
2018-11-27T22:47:16.896Z,3.20
2018-11-27T22:49:47.228Z,3.20
2018-11-27T22:52:16.606Z,3.10
2018-11-27T22:54:47.380Z,3.10
2018-11-27T22:57:24.198Z,3.10
2018-11-27T23:00:00.799Z,3.10
2018-11-27T23:02:30.289Z,3.00
2018-11-27T23:04:59.625Z,3.00
2018-11-27T23:07:34.643Z,3.00
2018-11-27T23:10:05.351Z,3.00
2018-11-27T23:12:35.967Z,3.00
2018-11-27T23:15:06.194Z,3.00
2018-11-27T23:17:35.671Z,3.00
2018-11-27T23:20:11.895Z,3.00
2018-11-27T23:22:41.527Z,3.00
2018-11-27T23:25:15.716Z,3.00
2018-11-27T23:27:44.979Z,3.00
2018-11-27T23:30:20.645Z,2.90
2018-11-27T23:33:02.845Z,2.90
2018-11-27T23:35:32.526Z,2.90
2018-11-27T23:38:01.775Z,2.90
2018-11-27T23:40:39.101Z,2.90
2018-11-27T23:43:08.370Z,2.90
2018-11-27T23:45:38.085Z,2.90
2018-11-27T23:48:07.963Z,2.90
2018-11-27T23:50:37.318Z,2.80
2018-11-27T23:53:12.116Z,2.90
2018-11-27T23:55:42.047Z,2.80
2018-11-27T23:58:11.965Z,2.90
